UAL2338 KEWR-KIAD
Flight info
| Callsign | UAL2338 |
|---|---|
| Flight time | 0h 48m |
| Altitude | 32000 |
| Route | PARKE HYPER9 |
| Aircraft | A319/M-SDE3FGHIRWY/LB1 |
Departure
| Time | 2026-05-05 21:06 |
|---|---|
| Airport | Newark Liberty International Airport (KEWR) |
Arrival
| Time | 2026-05-05 21:55 |
|---|---|
| Airport | Washington Dulles International Airport (KIAD) |
| Time | Latitude | Longitude | Altitude | Speed | Heading |
|---|---|---|---|---|---|
| 2026-05-05 20:38 | 40.68439 | -74.18335 | 22 ft | 0 kts | 185° |
| 2026-05-05 20:50 | 40.68454 | -74.18334 | 24 ft | 4 kts | 176° |
| 2026-05-05 20:50 | 40.68480 | -74.18341 | 23 ft | 4 kts | 151° |
| 2026-05-05 20:51 | 40.68500 | -74.18362 | 23 ft | 4 kts | 121° |
| 2026-05-05 20:51 | 40.68508 | -74.18389 | 24 ft | 1 kts | 95° |
| 2026-05-05 20:57 | 40.68508 | -74.18387 | 22 ft | 2 kts | 95° |
| 2026-05-05 20:57 | 40.68506 | -74.18355 | 17 ft | 5 kts | 95° |
| 2026-05-05 20:58 | 40.68502 | -74.18293 | 22 ft | 8 kts | 95° |
| 2026-05-05 20:58 | 40.68495 | -74.18211 | 22 ft | 10 kts | 102° |
| 2026-05-05 20:58 | 40.68456 | -74.18129 | 24 ft | 12 kts | 128° |
| 2026-05-05 20:58 | 40.68413 | -74.18025 | 22 ft | 14 kts | 115° |
| 2026-05-05 20:59 | 40.68368 | -74.17902 | 22 ft | 16 kts | 115° |
| 2026-05-05 20:59 | 40.68320 | -74.17768 | 23 ft | 13 kts | 116° |
| 2026-05-05 20:59 | 40.68286 | -74.17669 | 22 ft | 13 kts | 103° |
| 2026-05-05 20:59 | 40.68340 | -74.17598 | 22 ft | 13 kts | 28° |
| 2026-05-05 21:00 | 40.68425 | -74.17541 | 24 ft | 15 kts | 25° |
| 2026-05-05 21:00 | 40.68525 | -74.17479 | 23 ft | 17 kts | 25° |
| 2026-05-05 21:00 | 40.68639 | -74.17408 | 23 ft | 19 kts | 25° |
| 2026-05-05 21:00 | 40.68761 | -74.17329 | 24 ft | 20 kts | 26° |
| 2026-05-05 21:01 | 40.68892 | -74.17246 | 23 ft | 21 kts | 26° |
| 2026-05-05 21:01 | 40.69032 | -74.17157 | 22 ft | 23 kts | 26° |
| 2026-05-05 21:01 | 40.69180 | -74.17063 | 22 ft | 24 kts | 26° |
| 2026-05-05 21:01 | 40.69328 | -74.16969 | 22 ft | 24 kts | 26° |
| 2026-05-05 21:02 | 40.69478 | -74.16873 | 23 ft | 25 kts | 26° |
| 2026-05-05 21:02 | 40.69637 | -74.16772 | 22 ft | 26 kts | 26° |
| 2026-05-05 21:02 | 40.69792 | -74.16674 | 21 ft | 23 kts | 25° |
| 2026-05-05 21:02 | 40.69901 | -74.16605 | 22 ft | 10 kts | 26° |
| 2026-05-05 21:03 | 40.69972 | -74.16559 | 21 ft | 13 kts | 26° |
| 2026-05-05 21:03 | 40.70046 | -74.16514 | 21 ft | 7 kts | 18° |
| 2026-05-05 21:03 | 40.70064 | -74.16475 | 21 ft | 0 kts | 86° |
| 2026-05-05 21:04 | 40.70065 | -74.16459 | 21 ft | 4 kts | 86° |
| 2026-05-05 21:04 | 40.70061 | -74.16401 | 20 ft | 8 kts | 108° |
| 2026-05-05 21:04 | 40.70007 | -74.16378 | 19 ft | 10 kts | 197° |
| 2026-05-05 21:04 | 40.69999 | -74.16381 | 19 ft | 0 kts | 200° |
| 2026-05-05 21:05 | 40.69993 | -74.16384 | 19 ft | 3 kts | 200° |
| 2026-05-05 21:05 | 40.69947 | -74.16412 | 19 ft | 25 kts | 206° |
| 2026-05-05 21:05 | 40.69610 | -74.16628 | 23 ft | 83 kts | 205° |
| 2026-05-05 21:06 | 40.68924 | -74.17063 | 28 ft | 135 kts | 207° |
| 2026-05-05 21:06 | 40.68057 | -74.17593 | 512 ft | 143 kts | 207° |
| 2026-05-05 21:06 | 40.67134 | -74.18128 | 1170 ft | 145 kts | 208° |
| 2026-05-05 21:06 | 40.66189 | -74.18682 | 1802 ft | 153 kts | 207° |
| 2026-05-05 21:07 | 40.65155 | -74.19322 | 2202 ft | 177 kts | 210° |
| 2026-05-05 21:07 | 40.63946 | -74.20102 | 2478 ft | 215 kts | 208° |
| 2026-05-05 21:07 | 40.62516 | -74.21017 | 2502 ft | 234 kts | 208° |
| 2026-05-05 21:07 | 40.61034 | -74.21960 | 2502 ft | 237 kts | 212° |
| 2026-05-05 21:08 | 40.59904 | -74.23488 | 2502 ft | 236 kts | 240° |
| 2026-05-05 21:08 | 40.59314 | -74.25496 | 2505 ft | 238 kts | 255° |
| 2026-05-05 21:08 | 40.59332 | -74.27723 | 2778 ft | 252 kts | 275° |
| 2026-05-05 21:08 | 40.59598 | -74.29988 | 3867 ft | 249 kts | 274° |
| 2026-05-05 21:09 | 40.59857 | -74.32244 | 4961 ft | 250 kts | 273° |
| 2026-05-05 21:09 | 40.60113 | -74.34518 | 6025 ft | 252 kts | 273° |
| 2026-05-05 21:09 | 40.60372 | -74.36818 | 7029 ft | 256 kts | 274° |
| 2026-05-05 21:09 | 40.60634 | -74.39145 | 8028 ft | 258 kts | 275° |
| 2026-05-05 21:10 | 40.60902 | -74.41486 | 9077 ft | 260 kts | 275° |
| 2026-05-05 21:10 | 40.61172 | -74.43841 | 10076 ft | 261 kts | 276° |
| 2026-05-05 21:10 | 40.61451 | -74.46285 | 10578 ft | 281 kts | 276° |
| 2026-05-05 21:10 | 40.61748 | -74.48886 | 11187 ft | 292 kts | 276° |
| 2026-05-05 21:11 | 40.62052 | -74.51553 | 12000 ft | 297 kts | 276° |
| 2026-05-05 21:11 | 40.62360 | -74.54255 | 12837 ft | 300 kts | 276° |
| 2026-05-05 21:11 | 40.62670 | -74.56992 | 13680 ft | 303 kts | 276° |
| 2026-05-05 21:11 | 40.62980 | -74.59720 | 14412 ft | 307 kts | 276° |
| 2026-05-05 21:12 | 40.63295 | -74.62514 | 15147 ft | 310 kts | 276° |
| 2026-05-05 21:12 | 40.63601 | -74.65346 | 15860 ft | 315 kts | 276° |
| 2026-05-05 21:12 | 40.63919 | -74.68212 | 16564 ft | 319 kts | 276° |
| 2026-05-05 21:12 | 40.64249 | -74.71116 | 17272 ft | 323 kts | 276° |
| 2026-05-05 21:13 | 40.64583 | -74.74050 | 17984 ft | 327 kts | 276° |
| 2026-05-05 21:13 | 40.64920 | -74.77029 | 18611 ft | 330 kts | 276° |
| 2026-05-05 21:13 | 40.65261 | -74.80042 | 19220 ft | 334 kts | 276° |
| 2026-05-05 21:13 | 40.65603 | -74.83082 | 19838 ft | 337 kts | 276° |
| 2026-05-05 21:14 | 40.65947 | -74.86153 | 20455 ft | 341 kts | 276° |
| 2026-05-05 21:14 | 40.66291 | -74.89258 | 21074 ft | 344 kts | 276° |
| 2026-05-05 21:14 | 40.66635 | -74.92394 | 21635 ft | 348 kts | 276° |
| 2026-05-05 21:14 | 40.66983 | -74.95552 | 21800 ft | 348 kts | 276° |
| 2026-05-05 21:15 | 40.67324 | -74.98640 | 21834 ft | 333 kts | 276° |
| 2026-05-05 21:15 | 40.67654 | -75.01606 | 21841 ft | 323 kts | 276° |
| 2026-05-05 21:15 | 40.67975 | -75.04521 | 21840 ft | 321 kts | 276° |
| 2026-05-05 21:15 | 40.68237 | -75.07428 | 21842 ft | 319 kts | 271° |
| 2026-05-05 21:16 | 40.68116 | -75.10344 | 21843 ft | 319 kts | 263° |
| 2026-05-05 21:16 | 40.67889 | -75.13254 | 21841 ft | 321 kts | 264° |
| 2026-05-05 21:16 | 40.67669 | -75.16247 | 21841 ft | 327 kts | 264° |
| 2026-05-05 21:16 | 40.67445 | -75.19196 | 21840 ft | 321 kts | 263° |
| 2026-05-05 21:17 | 40.67216 | -75.22115 | 21840 ft | 320 kts | 263° |
| 2026-05-05 21:17 | 40.66983 | -75.25031 | 21839 ft | 320 kts | 263° |
| 2026-05-05 21:17 | 40.66752 | -75.27903 | 21840 ft | 320 kts | 263° |
| 2026-05-05 21:17 | 40.66519 | -75.30821 | 21841 ft | 320 kts | 263° |
| 2026-05-05 21:18 | 40.66292 | -75.33733 | 21839 ft | 320 kts | 264° |
| 2026-05-05 21:18 | 40.66008 | -75.36634 | 21840 ft | 320 kts | 257° |
| 2026-05-05 21:18 | 40.65299 | -75.39403 | 21840 ft | 321 kts | 246° |
| 2026-05-05 21:18 | 40.64225 | -75.41968 | 21756 ft | 318 kts | 242° |
| 2026-05-05 21:19 | 40.63133 | -75.44491 | 21615 ft | 317 kts | 242° |
| 2026-05-05 21:19 | 40.62043 | -75.47016 | 21496 ft | 317 kts | 242° |
| 2026-05-05 21:19 | 40.60956 | -75.49538 | 21384 ft | 315 kts | 242° |
| 2026-05-05 21:19 | 40.59876 | -75.52042 | 21254 ft | 315 kts | 242° |
| 2026-05-05 21:20 | 40.58797 | -75.54551 | 21137 ft | 314 kts | 242° |
| 2026-05-05 21:20 | 40.57721 | -75.57045 | 21007 ft | 313 kts | 242° |
| 2026-05-05 21:20 | 40.56644 | -75.59535 | 20878 ft | 313 kts | 242° |
| 2026-05-05 21:20 | 40.55567 | -75.62016 | 20751 ft | 312 kts | 242° |
| 2026-05-05 21:21 | 40.54493 | -75.64488 | 20626 ft | 311 kts | 242° |
| 2026-05-05 21:21 | 40.53423 | -75.66956 | 20501 ft | 310 kts | 242° |
| 2026-05-05 21:21 | 40.52357 | -75.69419 | 20378 ft | 310 kts | 242° |
| 2026-05-05 21:21 | 40.51291 | -75.71876 | 20272 ft | 309 kts | 242° |
| 2026-05-05 21:22 | 40.50242 | -75.74295 | 20196 ft | 309 kts | 242° |
| 2026-05-05 21:22 | 40.49179 | -75.76739 | 20120 ft | 308 kts | 242° |
| 2026-05-05 21:22 | 40.48117 | -75.79185 | 20051 ft | 308 kts | 242° |
| 2026-05-05 21:22 | 40.47053 | -75.81632 | 19928 ft | 308 kts | 242° |
| 2026-05-05 21:23 | 40.45990 | -75.84068 | 19847 ft | 307 kts | 242° |
| 2026-05-05 21:23 | 40.44928 | -75.86497 | 19851 ft | 307 kts | 242° |
| 2026-05-05 21:23 | 40.43767 | -75.88847 | 19858 ft | 309 kts | 233° |
| 2026-05-05 21:23 | 40.42278 | -75.90895 | 19857 ft | 310 kts | 227° |
| 2026-05-05 21:24 | 40.40719 | -75.92858 | 19852 ft | 311 kts | 227° |
| 2026-05-05 21:24 | 40.39166 | -75.94826 | 19830 ft | 310 kts | 227° |
| 2026-05-05 21:24 | 40.37615 | -75.96794 | 19832 ft | 310 kts | 227° |
| 2026-05-05 21:24 | 40.36061 | -75.98764 | 19831 ft | 311 kts | 227° |
| 2026-05-05 21:25 | 40.34507 | -76.00737 | 19832 ft | 310 kts | 227° |
| 2026-05-05 21:25 | 40.32952 | -76.02710 | 19831 ft | 310 kts | 227° |
| 2026-05-05 21:25 | 40.31399 | -76.04674 | 19830 ft | 310 kts | 227° |
| 2026-05-05 21:25 | 40.29848 | -76.06640 | 19833 ft | 310 kts | 227° |
| 2026-05-05 21:26 | 40.28297 | -76.08606 | 19822 ft | 310 kts | 227° |
| 2026-05-05 21:26 | 40.26747 | -76.10564 | 19833 ft | 310 kts | 227° |
| 2026-05-05 21:26 | 40.25196 | -76.12521 | 19837 ft | 309 kts | 227° |
| 2026-05-05 21:26 | 40.23645 | -76.14475 | 19856 ft | 309 kts | 227° |
| 2026-05-05 21:27 | 40.22116 | -76.16402 | 19845 ft | 309 kts | 226° |
| 2026-05-05 21:27 | 40.20567 | -76.18355 | 19843 ft | 309 kts | 226° |
| 2026-05-05 21:27 | 40.19018 | -76.20307 | 19842 ft | 309 kts | 226° |
| 2026-05-05 21:27 | 40.17465 | -76.22257 | 19841 ft | 309 kts | 226° |
| 2026-05-05 21:28 | 40.15913 | -76.24205 | 19841 ft | 309 kts | 226° |
| 2026-05-05 21:28 | 40.14361 | -76.26153 | 19840 ft | 309 kts | 226° |
| 2026-05-05 21:28 | 40.12817 | -76.28108 | 19840 ft | 309 kts | 229° |
| 2026-05-05 21:28 | 40.11476 | -76.30284 | 19842 ft | 307 kts | 238° |
| 2026-05-05 21:29 | 40.10369 | -76.32669 | 19740 ft | 307 kts | 240° |
| 2026-05-05 21:29 | 40.09273 | -76.35055 | 19480 ft | 304 kts | 240° |
| 2026-05-05 21:29 | 40.08184 | -76.37407 | 19241 ft | 302 kts | 240° |
| 2026-05-05 21:29 | 40.07095 | -76.39753 | 19019 ft | 301 kts | 240° |
| 2026-05-05 21:30 | 40.06015 | -76.42085 | 18782 ft | 300 kts | 240° |
| 2026-05-05 21:30 | 40.04941 | -76.44408 | 18552 ft | 298 kts | 240° |
| 2026-05-05 21:30 | 40.03873 | -76.46719 | 18324 ft | 297 kts | 240° |
| 2026-05-05 21:30 | 40.02808 | -76.49021 | 18081 ft | 295 kts | 240° |
| 2026-05-05 21:31 | 40.01747 | -76.51315 | 17808 ft | 295 kts | 240° |
| 2026-05-05 21:31 | 40.00689 | -76.53603 | 17546 ft | 295 kts | 240° |
| 2026-05-05 21:31 | 39.99629 | -76.55887 | 17279 ft | 294 kts | 240° |
| 2026-05-05 21:31 | 39.98570 | -76.58167 | 17012 ft | 293 kts | 240° |
| 2026-05-05 21:32 | 39.97518 | -76.60433 | 16746 ft | 292 kts | 240° |
| 2026-05-05 21:32 | 39.96471 | -76.62692 | 16498 ft | 291 kts | 240° |
| 2026-05-05 21:32 | 39.95441 | -76.64909 | 16251 ft | 289 kts | 240° |
| 2026-05-05 21:32 | 39.94400 | -76.67147 | 15996 ft | 288 kts | 240° |
| 2026-05-05 21:33 | 39.93360 | -76.69377 | 15749 ft | 288 kts | 240° |
| 2026-05-05 21:33 | 39.92325 | -76.71599 | 15498 ft | 286 kts | 240° |
| 2026-05-05 21:33 | 39.91292 | -76.73808 | 15250 ft | 285 kts | 240° |
| 2026-05-05 21:33 | 39.90262 | -76.76007 | 15006 ft | 284 kts | 240° |
| 2026-05-05 21:34 | 39.89233 | -76.78203 | 14764 ft | 283 kts | 240° |
| 2026-05-05 21:34 | 39.88211 | -76.80389 | 14524 ft | 282 kts | 240° |
| 2026-05-05 21:34 | 39.87194 | -76.82568 | 14286 ft | 281 kts | 240° |
| 2026-05-05 21:34 | 39.86182 | -76.84733 | 14088 ft | 279 kts | 240° |
| 2026-05-05 21:35 | 39.85170 | -76.86891 | 14029 ft | 279 kts | 241° |
| 2026-05-05 21:35 | 39.84164 | -76.89038 | 13991 ft | 279 kts | 241° |
| 2026-05-05 21:35 | 39.83158 | -76.91182 | 13737 ft | 275 kts | 241° |
| 2026-05-05 21:35 | 39.82170 | -76.93286 | 13466 ft | 271 kts | 240° |
| 2026-05-05 21:36 | 39.81189 | -76.95370 | 13169 ft | 269 kts | 240° |
| 2026-05-05 21:36 | 39.80215 | -76.97438 | 12877 ft | 267 kts | 240° |
| 2026-05-05 21:36 | 39.79249 | -76.99494 | 12598 ft | 266 kts | 240° |
| 2026-05-05 21:36 | 39.78286 | -77.01548 | 12320 ft | 264 kts | 240° |
| 2026-05-05 21:37 | 39.77333 | -77.03573 | 12040 ft | 260 kts | 240° |
| 2026-05-05 21:37 | 39.76391 | -77.05568 | 11762 ft | 257 kts | 239° |
| 2026-05-05 21:37 | 39.75459 | -77.07543 | 11487 ft | 256 kts | 239° |
| 2026-05-05 21:37 | 39.74534 | -77.09509 | 11207 ft | 254 kts | 239° |
| 2026-05-05 21:38 | 39.73625 | -77.11440 | 10942 ft | 254 kts | 239° |
| 2026-05-05 21:38 | 39.72708 | -77.13393 | 10674 ft | 253 kts | 239° |
| 2026-05-05 21:38 | 39.71789 | -77.15338 | 10407 ft | 251 kts | 239° |
| 2026-05-05 21:38 | 39.70877 | -77.17262 | 10154 ft | 250 kts | 238° |
| 2026-05-05 21:39 | 39.69967 | -77.19183 | 10051 ft | 250 kts | 238° |
| 2026-05-05 21:39 | 39.69060 | -77.21095 | 10049 ft | 245 kts | 238° |
| 2026-05-05 21:39 | 39.68073 | -77.22860 | 10050 ft | 240 kts | 228° |
| 2026-05-05 21:39 | 39.66884 | -77.24327 | 9954 ft | 232 kts | 224° |
| 2026-05-05 21:40 | 39.65708 | -77.25737 | 9821 ft | 229 kts | 224° |
| 2026-05-05 21:40 | 39.64544 | -77.27138 | 9710 ft | 228 kts | 224° |
| 2026-05-05 21:40 | 39.63381 | -77.28538 | 9590 ft | 228 kts | 224° |
| 2026-05-05 21:40 | 39.62232 | -77.29946 | 9451 ft | 227 kts | 222° |
| 2026-05-05 21:41 | 39.61344 | -77.30672 | 9366 ft | 229 kts | 207° |
| 2026-05-05 21:41 | 39.59875 | -77.31487 | 9239 ft | 229 kts | 206° |
| 2026-05-05 21:41 | 39.58405 | -77.32297 | 9109 ft | 229 kts | 206° |
| 2026-05-05 21:41 | 39.56935 | -77.33102 | 8976 ft | 229 kts | 206° |
| 2026-05-05 21:42 | 39.55467 | -77.33905 | 8842 ft | 229 kts | 206° |
| 2026-05-05 21:42 | 39.53996 | -77.34709 | 8712 ft | 229 kts | 206° |
| 2026-05-05 21:42 | 39.52526 | -77.35511 | 8584 ft | 229 kts | 206° |
| 2026-05-05 21:42 | 39.51059 | -77.36314 | 8456 ft | 228 kts | 206° |
| 2026-05-05 21:43 | 39.49598 | -77.37114 | 8329 ft | 228 kts | 206° |
| 2026-05-05 21:43 | 39.48138 | -77.37910 | 8204 ft | 226 kts | 206° |
| 2026-05-05 21:43 | 39.46725 | -77.38679 | 8079 ft | 222 kts | 206° |
| 2026-05-05 21:43 | 39.45306 | -77.39452 | 7951 ft | 221 kts | 206° |
| 2026-05-05 21:44 | 39.43893 | -77.40224 | 7828 ft | 220 kts | 206° |
| 2026-05-05 21:44 | 39.42486 | -77.40992 | 7697 ft | 220 kts | 205° |
| 2026-05-05 21:44 | 39.41077 | -77.41759 | 7581 ft | 220 kts | 206° |
| 2026-05-05 21:44 | 39.39665 | -77.42506 | 7457 ft | 220 kts | 202° |
| 2026-05-05 21:45 | 39.38163 | -77.42932 | 7281 ft | 223 kts | 190° |
| 2026-05-05 21:45 | 39.36596 | -77.42987 | 6952 ft | 227 kts | 185° |
| 2026-05-05 21:45 | 39.35010 | -77.43005 | 6614 ft | 228 kts | 185° |
| 2026-05-05 21:45 | 39.33411 | -77.43027 | 6273 ft | 230 kts | 185° |
| 2026-05-05 21:46 | 39.31807 | -77.43051 | 6018 ft | 228 kts | 185° |
| 2026-05-05 21:46 | 39.30255 | -77.43072 | 5968 ft | 218 kts | 185° |
| 2026-05-05 21:46 | 39.28748 | -77.43096 | 5728 ft | 216 kts | 185° |
| 2026-05-05 21:46 | 39.27262 | -77.43119 | 5497 ft | 211 kts | 185° |
| 2026-05-05 21:47 | 39.25821 | -77.43140 | 5277 ft | 203 kts | 185° |
| 2026-05-05 21:47 | 39.24441 | -77.43160 | 5088 ft | 194 kts | 185° |
| 2026-05-05 21:47 | 39.23137 | -77.43179 | 5009 ft | 181 kts | 186° |
| 2026-05-05 21:47 | 39.21921 | -77.43197 | 5007 ft | 171 kts | 186° |
| 2026-05-05 21:48 | 39.20733 | -77.43217 | 4982 ft | 171 kts | 186° |
| 2026-05-05 21:48 | 39.19550 | -77.43236 | 4832 ft | 169 kts | 186° |
| 2026-05-05 21:48 | 39.18370 | -77.43254 | 4648 ft | 169 kts | 186° |
| 2026-05-05 21:48 | 39.17194 | -77.43272 | 4433 ft | 169 kts | 186° |
| 2026-05-05 21:49 | 39.16026 | -77.43289 | 4211 ft | 167 kts | 186° |
| 2026-05-05 21:49 | 39.14892 | -77.43306 | 3999 ft | 163 kts | 185° |
| 2026-05-05 21:49 | 39.13767 | -77.43323 | 3786 ft | 162 kts | 185° |
| 2026-05-05 21:49 | 39.12640 | -77.43340 | 3607 ft | 163 kts | 186° |
| 2026-05-05 21:50 | 39.11499 | -77.43357 | 3359 ft | 160 kts | 187° |
| 2026-05-05 21:50 | 39.10400 | -77.43373 | 3147 ft | 157 kts | 187° |
| 2026-05-05 21:50 | 39.09321 | -77.43389 | 2945 ft | 152 kts | 185° |
| 2026-05-05 21:50 | 39.08309 | -77.43404 | 2755 ft | 145 kts | 186° |
| 2026-05-05 21:51 | 39.07309 | -77.43419 | 2574 ft | 142 kts | 186° |
| 2026-05-05 21:51 | 39.06324 | -77.43435 | 2393 ft | 141 kts | 186° |
| 2026-05-05 21:51 | 39.05345 | -77.43450 | 2211 ft | 140 kts | 186° |
| 2026-05-05 21:51 | 39.04378 | -77.43464 | 2019 ft | 138 kts | 186° |
| 2026-05-05 21:52 | 39.02484 | -77.43493 | 1683 ft | 134 kts | 185° |
| 2026-05-05 21:52 | 39.01572 | -77.43506 | 1496 ft | 130 kts | 184° |
| 2026-05-05 21:52 | 39.00653 | -77.43520 | 1319 ft | 131 kts | 186° |
| 2026-05-05 21:53 | 38.99757 | -77.43533 | 1164 ft | 125 kts | 184° |
| 2026-05-05 21:53 | 38.98885 | -77.43547 | 983 ft | 128 kts | 186° |
| 2026-05-05 21:53 | 38.97989 | -77.43560 | 833 ft | 129 kts | 183° |
| 2026-05-05 21:53 | 38.97126 | -77.43573 | 667 ft | 122 kts | 182° |
| 2026-05-05 21:54 | 38.96220 | -77.43587 | 491 ft | 132 kts | 186° |
| 2026-05-05 21:54 | 38.95325 | -77.43600 | 322 ft | 128 kts | 185° |
| 2026-05-05 21:54 | 38.94539 | -77.43612 | 303 ft | 100 kts | 181° |
| 2026-05-05 21:54 | 38.93986 | -77.43622 | 301 ft | 64 kts | 181° |
| 2026-05-05 21:55 | 38.93638 | -77.43630 | 302 ft | 29 kts | 181° |
| 2026-05-05 21:55 | 38.93456 | -77.43692 | 299 ft | 30 kts | 207° |
| 2026-05-05 21:55 | 38.93313 | -77.43827 | 302 ft | 16 kts | 258° |
| 2026-05-05 21:55 | 38.93412 | -77.43879 | 301 ft | 19 kts | 358° |
| 2026-05-05 21:56 | 38.93548 | -77.43881 | 301 ft | 20 kts | 359° |
| 2026-05-05 21:56 | 38.93694 | -77.43877 | 303 ft | 22 kts | 7° |
| 2026-05-05 21:56 | 38.93849 | -77.43871 | 303 ft | 23 kts | 360° |
| 2026-05-05 21:56 | 38.94011 | -77.43868 | 301 ft | 24 kts | 0° |
| 2026-05-05 21:57 | 38.94178 | -77.43870 | 302 ft | 24 kts | 359° |
| 2026-05-05 21:57 | 38.94353 | -77.43863 | 302 ft | 26 kts | 0° |
| 2026-05-05 21:57 | 38.94538 | -77.43860 | 302 ft | 27 kts | 359° |
| 2026-05-05 21:57 | 38.94733 | -77.43860 | 300 ft | 29 kts | 1° |
| 2026-05-05 21:58 | 38.94940 | -77.43858 | 302 ft | 28 kts | 1° |
| 2026-05-05 21:58 | 38.95082 | -77.43870 | 300 ft | 15 kts | 322° |
| 2026-05-05 21:58 | 38.95099 | -77.44004 | 300 ft | 17 kts | 270° |
| 2026-05-05 21:58 | 38.95098 | -77.44167 | 300 ft | 20 kts | 268° |
| 2026-05-05 21:59 | 38.95102 | -77.44355 | 300 ft | 23 kts | 269° |
| 2026-05-05 21:59 | 38.95101 | -77.44577 | 300 ft | 25 kts | 270° |
| 2026-05-05 21:59 | 38.95106 | -77.44679 | 302 ft | 6 kts | 300° |
| 2026-05-05 21:59 | 38.95133 | -77.44682 | 300 ft | 1 kts | 6° |
| 2026-05-05 22:00 | 38.95149 | -77.44684 | 300 ft | 2 kts | 358° |
| 2026-05-05 22:00 | 38.95153 | -77.44684 | 300 ft | 0 kts | 359° |